sensor_id;sensor_type;location;lat;lon;timestamp;pressure;altitude;pressure_sealevel;temperature;humidity
4586;BME280;2305;50.118;8.952;2023-04-26T00:01:18;100706.38;;;7.09;100.00
4586;BME280;2305;50.118;8.952;2023-04-26T00:03:49;100708.34;;;7.05;100.00
4586;BME280;2305;50.118;8.952;2023-04-26T00:06:18;100709.75;;;6.97;100.00
4586;BME280;2305;50.118;8.952;2023-04-26T00:08:46;100710.88;;;6.93;100.00
4586;BME280;2305;50.118;8.952;2023-04-26T00:11:15;100706.53;;;6.92;100.00
4586;BME280;2305;50.118;8.952;2023-04-26T00:13:45;100705.16;;;6.86;100.00
4586;BME280;2305;50.118;8.952;2023-04-26T00:16:15;100703.00;;;6.79;100.00
4586;BME280;2305;50.118;8.952;2023-04-26T00:18:47;100705.72;;;6.77;100.00
4586;BME280;2305;50.118;8.952;2023-04-26T00:21:16;100714.59;;;6.75;100.00
4586;BME280;2305;50.118;8.952;2023-04-26T00:23:44;100707.84;;;6.71;100.00
4586;BME280;2305;50.118;8.952;2023-04-26T00:26:13;100717.75;;;6.66;100.00
4586;BME280;2305;50.118;8.952;2023-04-26T00:28:42;100722.41;;;6.61;100.00
4586;BME280;2305;50.118;8.952;2023-04-26T00:31:14;100729.78;;;6.54;100.00
4586;BME280;2305;50.118;8.952;2023-04-26T00:33:43;100725.00;;;6.47;100.00
4586;BME280;2305;50.118;8.952;2023-04-26T00:36:12;100725.84;;;6.47;100.00
4586;BME280;2305;50.118;8.952;2023-04-26T00:38:41;100731.09;;;6.47;100.00
4586;BME280;2305;50.118;8.952;2023-04-26T00:41:09;100722.72;;;6.41;100.00
4586;BME280;2305;50.118;8.952;2023-04-26T00:43:37;100732.38;;;6.40;100.00
4586;BME280;2305;50.118;8.952;2023-04-26T00:46:08;100731.03;;;6.33;100.00
4586;BME280;2305;50.118;8.952;2023-04-26T00:48:38;100733.81;;;6.30;100.00
4586;BME280;2305;50.118;8.952;2023-04-26T00:51:08;100726.25;;;6.26;100.00
4586;BME280;2305;50.118;8.952;2023-04-26T00:53:37;100731.81;;;6.20;100.00
4586;BME280;2305;50.118;8.952;2023-04-26T00:56:08;100738.91;;;6.18;100.00
4586;BME280;2305;50.118;8.952;2023-04-26T00:58:37;100734.69;;;6.15;100.00
4586;BME280;2305;50.118;8.952;2023-04-26T01:01:05;100737.59;;;6.11;100.00
4586;BME280;2305;50.118;8.952;2023-04-26T01:03:36;100733.44;;;6.07;100.00
4586;BME280;2305;50.118;8.952;2023-04-26T01:06:05;100738.94;;;6.02;100.00
4586;BME280;2305;50.118;8.952;2023-04-26T01:08:35;100740.13;;;5.97;100.00
4586;BME280;2305;50.118;8.952;2023-04-26T01:11:04;100739.28;;;5.96;100.00
4586;BME280;2305;50.118;8.952;2023-04-26T01:13:32;100740.47;;;5.91;100.00
4586;BME280;2305;50.118;8.952;2023-04-26T01:16:01;100746.88;;;5.85;100.00
4586;BME280;2305;50.118;8.952;2023-04-26T01:18:30;100737.63;;;5.80;100.00
4586;BME280;2305;50.118;8.952;2023-04-26T01:20:58;100746.50;;;5.76;100.00
4586;BME280;2305;50.118;8.952;2023-04-26T01:23:31;100739.13;;;5.68;100.00
4586;BME280;2305;50.118;8.952;2023-04-26T01:25:59;100736.72;;;5.64;100.00
4586;BME280;2305;50.118;8.952;2023-04-26T01:28:33;100734.38;;;5.59;100.00
4586;BME280;2305;50.118;8.952;2023-04-26T01:31:04;100736.22;;;5.57;100.00
4586;BME280;2305;50.118;8.952;2023-04-26T01:33:32;100730.16;;;5.57;100.00
4586;BME280;2305;50.118;8.952;2023-04-26T01:36:07;100730.16;;;5.57;100.00
4586;BME280;2305;50.118;8.952;2023-04-26T01:38:40;100724.16;;;5.55;100.00
4586;BME280;2305;50.118;8.952;2023-04-26T01:41:11;100721.13;;;5.47;100.00
4586;BME280;2305;50.118;8.952;2023-04-26T01:43:41;100723.81;;;5.45;100.00
4586;BME280;2305;50.118;8.952;2023-04-26T01:46:10;100720.53;;;5.42;100.00
4586;BME280;2305;50.118;8.952;2023-04-26T01:48:38;100722.38;;;5.40;100.00
4586;BME280;2305;50.118;8.952;2023-04-26T01:51:06;100720.09;;;5.34;100.00
4586;BME280;2305;50.118;8.952;2023-04-26T01:53:35;100729.88;;;5.30;100.00
4586;BME280;2305;50.118;8.952;2023-04-26T01:56:05;100733.41;;;5.29;100.00
4586;BME280;2305;50.118;8.952;2023-04-26T01:58:37;100737.97;;;5.26;100.00
4586;BME280;2305;50.118;8.952;2023-04-26T02:01:06;100733.59;;;5.26;100.00
4586;BME280;2305;50.118;8.952;2023-04-26T02:03:36;100736.41;;;5.22;100.00
4586;BME280;2305;50.118;8.952;2023-04-26T02:06:04;100740.38;;;5.13;100.00
4586;BME280;2305;50.118;8.952;2023-04-26T02:08:33;100738.09;;;5.07;100.00
4586;BME280;2305;50.118;8.952;2023-04-26T02:11:02;100737.47;;;5.02;100.00
4586;BME280;2305;50.118;8.952;2023-04-26T02:13:31;100734.19;;;4.99;100.00
4586;BME280;2305;50.118;8.952;2023-04-26T02:16:00;100743.69;;;5.00;100.00
4586;BME280;2305;50.118;8.952;2023-04-26T02:18:29;100746.66;;;4.94;100.00
4586;BME280;2305;50.118;8.952;2023-04-26T02:20:57;100740.81;;;4.89;100.00
4586;BME280;2305;50.118;8.952;2023-04-26T02:23:26;100745.28;;;4.87;100.00
4586;BME280;2305;50.118;8.952;2023-04-26T02:25:55;100746.03;;;4.89;100.00
4586;BME280;2305;50.118;8.952;2023-04-26T02:28:23;100748.03;;;4.84;100.00
4586;BME280;2305;50.118;8.952;2023-04-26T02:30:55;100748.34;;;4.78;100.00
4586;BME280;2305;50.118;8.952;2023-04-26T02:33:24;100742.53;;;4.73;100.00
4586;BME280;2305;50.118;8.952;2023-04-26T02:35:52;100753.88;;;4.72;100.00
4586;BME280;2305;50.118;8.952;2023-04-26T02:38:21;100746.28;;;4.67;100.00
4586;BME280;2305;50.118;8.952;2023-04-26T02:40:57;100753.19;;;4.68;100.00
4586;BME280;2305;50.118;8.952;2023-04-26T02:43:27;100748.81;;;4.69;100.00
4586;BME280;2305;50.118;8.952;2023-04-26T02:45:57;100750.91;;;4.62;100.00
4586;BME280;2305;50.118;8.952;2023-04-26T02:48:32;100749.28;;;4.60;100.00
4586;BME280;2305;50.118;8.952;2023-04-26T02:51:05;100744.22;;;4.57;100.00
4586;BME280;2305;50.118;8.952;2023-04-26T02:53:35;100742.69;;;4.53;100.00
4586;BME280;2305;50.118;8.952;2023-04-26T02:56:06;100750.75;;;4.48;100.00
4586;BME280;2305;50.118;8.952;2023-04-26T02:58:36;100741.53;;;4.41;100.00
4586;BME280;2305;50.118;8.952;2023-04-26T03:01:06;100746.84;;;4.40;100.00
4586;BME280;2305;50.118;8.952;2023-04-26T03:03:35;100746.06;;;4.38;100.00
4586;BME280;2305;50.118;8.952;2023-04-26T03:06:06;100740.06;;;4.36;100.00
4586;BME280;2305;50.118;8.952;2023-04-26T03:08:38;100739.19;;;4.37;100.00
4586;BME280;2305;50.118;8.952;2023-04-26T03:11:08;100742.78;;;4.34;100.00
4586;BME280;2305;50.118;8.952;2023-04-26T03:13:36;100743.59;;;4.35;100.00
4586;BME280;2305;50.118;8.952;2023-04-26T03:16:07;100749.22;;;4.28;100.00
4586;BME280;2305;50.118;8.952;2023-04-26T03:18:36;100745.75;;;4.27;100.00
4586;BME280;2305;50.118;8.952;2023-04-26T03:21:05;100742.31;;;4.27;100.00
4586;BME280;2305;50.118;8.952;2023-04-26T03:23:33;100750.03;;;4.28;100.00
4586;BME280;2305;50.118;8.952;2023-04-26T03:26:02;100745.75;;;4.27;100.00
4586;BME280;2305;50.118;8.952;2023-04-26T03:28:30;100751.41;;;4.18;100.00
4586;BME280;2305;50.118;8.952;2023-04-26T03:30:59;100746.19;;;4.18;100.00
4586;BME280;2305;50.118;8.952;2023-04-26T03:33:31;100752.63;;;4.11;100.00
4586;BME280;2305;50.118;8.952;2023-04-26T03:36:02;100745.97;;;4.06;100.00
4586;BME280;2305;50.118;8.952;2023-04-26T03:38:30;100751.31;;;4.03;100.00
4586;BME280;2305;50.118;8.952;2023-04-26T03:40:58;100749.31;;;4.08;100.00
4586;BME280;2305;50.118;8.952;2023-04-26T03:43:29;100745.97;;;4.06;100.00
4586;BME280;2305;50.118;8.952;2023-04-26T03:45:59;100743.25;;;4.07;100.00
4586;BME280;2305;50.118;8.952;2023-04-26T03:48:28;100748.63;;;4.04;100.00
4586;BME280;2305;50.118;8.952;2023-04-26T03:51:00;100751.38;;;4.01;100.00
4586;BME280;2305;50.118;8.952;2023-04-26T03:53:29;100751.53;;;3.98;100.00
4586;BME280;2305;50.118;8.952;2023-04-26T03:55:57;100748.16;;;3.96;100.00
4586;BME280;2305;50.118;8.952;2023-04-26T03:58:26;100738.94;;;3.89;100.00
4586;BME280;2305;50.118;8.952;2023-04-26T04:00:55;100748.78;;;3.83;100.00
4586;BME280;2305;50.118;8.952;2023-04-26T04:03:23;100758.22;;;3.85;100.00
4586;BME280;2305;50.118;8.952;2023-04-26T04:05:52;100755.78;;;3.82;100.00
4586;BME280;2305;50.118;8.952;2023-04-26T04:08:21;100753.25;;;3.81;100.00
4586;BME280;2305;50.118;8.952;2023-04-26T04:10:51;100754.94;;;3.82;100.00
4586;BME280;2305;50.118;8.952;2023-04-26T04:13:21;100749.66;;;3.83;100.00
4586;BME280;2305;50.118;8.952;2023-04-26T04:15:50;100756.38;;;3.87;100.00
4586;BME280;2305;50.118;8.952;2023-04-26T04:18:18;100747.13;;;3.82;100.00
4586;BME280;2305;50.118;8.952;2023-04-26T04:20:47;100748.94;;;3.80;100.00
4586;BME280;2305;50.118;8.952;2023-04-26T04:23:15;100751.63;;;3.78;100.00
4586;BME280;2305;50.118;8.952;2023-04-26T04:25:45;100744.72;;;3.77;100.00
4586;BME280;2305;50.118;8.952;2023-04-26T04:28:15;100754.38;;;3.75;100.00
4586;BME280;2305;50.118;8.952;2023-04-26T04:30:44;100755.16;;;3.77;100.00
4586;BME280;2305;50.118;8.952;2023-04-26T04:33:13;100752.53;;;3.77;100.00
4586;BME280;2305;50.118;8.952;2023-04-26T04:35:44;100755.16;;;3.77;100.00
4586;BME280;2305;50.118;8.952;2023-04-26T04:38:14;100752.69;;;3.74;100.00
4586;BME280;2305;50.118;8.952;2023-04-26T04:40:43;100759.53;;;3.77;100.00
4586;BME280;2305;50.118;8.952;2023-04-26T04:43:13;100761.44;;;3.73;100.00
4586;BME280;2305;50.118;8.952;2023-04-26T04:45:42;100763.03;;;3.76;100.00
4586;BME280;2305;50.118;8.952;2023-04-26T04:48:12;100769.03;;;3.78;100.00
4586;BME280;2305;50.118;8.952;2023-04-26T04:50:41;100768.13;;;3.79;100.00
4586;BME280;2305;50.118;8.952;2023-04-26T04:53:09;100775.00;;;3.80;100.00
4586;BME280;2305;50.118;8.952;2023-04-26T04:55:38;100774.03;;;3.82;100.00
4586;BME280;2305;50.118;8.952;2023-04-26T04:58:10;100776.47;;;3.85;100.00
4586;BME280;2305;50.118;8.952;2023-04-26T05:00:42;100783.38;;;3.86;100.00
4586;BME280;2305;50.118;8.952;2023-04-26T05:03:29;100784.06;;;3.90;100.00
4586;BME280;2305;50.118;8.952;2023-04-26T05:06:03;100794.28;;;3.94;100.00
4586;BME280;2305;50.118;8.952;2023-04-26T05:08:31;100798.22;;;4.03;100.00
4586;BME280;2305;50.118;8.952;2023-04-26T05:11:02;100790.63;;;3.98;100.00
4586;BME280;2305;50.118;8.952;2023-04-26T05:13:31;100796.53;;;4.02;100.00
4586;BME280;2305;50.118;8.952;2023-04-26T05:16:00;100804.13;;;4.06;100.00
4586;BME280;2305;50.118;8.952;2023-04-26T05:18:28;100810.81;;;4.12;100.00
4586;BME280;2305;50.118;8.952;2023-04-26T05:20:57;100810.63;;;4.16;100.00
4586;BME280;2305;50.118;8.952;2023-04-26T05:23:25;100806.81;;;4.23;100.00
4586;BME280;2305;50.118;8.952;2023-04-26T05:26:00;100814.25;;;4.30;100.00
4586;BME280;2305;50.118;8.952;2023-04-26T05:28:51;100808.00;;;4.51;100.00
4586;BME280;2305;50.118;8.952;2023-04-26T05:31:34;100816.28;;;4.59;100.00
4586;BME280;2305;50.118;8.952;2023-04-26T05:34:19;100821.19;;;4.65;100.00
4586;BME280;2305;50.118;8.952;2023-04-26T05:36:52;100824.34;;;4.72;100.00
4586;BME280;2305;50.118;8.952;2023-04-26T05:39:23;100813.69;;;4.76;100.00
4586;BME280;2305;50.118;8.952;2023-04-26T05:41:53;100817.06;;;4.78;100.00
4586;BME280;2305;50.118;8.952;2023-04-26T05:44:21;100818.50;;;4.84;100.00
4586;BME280;2305;50.118;8.952;2023-04-26T05:46:50;100819.97;;;4.89;100.00
4586;BME280;2305;50.118;8.952;2023-04-26T05:49:28;100827.66;;;4.92;100.00
4586;BME280;2305;50.118;8.952;2023-04-26T05:51:58;100824.66;;;5.00;100.00
4586;BME280;2305;50.118;8.952;2023-04-26T05:54:27;100825.25;;;5.05;100.00
4586;BME280;2305;50.118;8.952;2023-04-26T05:56:55;100830.19;;;5.11;100.00
4586;BME280;2305;50.118;8.952;2023-04-26T05:59:26;100833.56;;;5.13;100.00
4586;BME280;2305;50.118;8.952;2023-04-26T06:02:01;100829.94;;;5.15;100.00
4586;BME280;2305;50.118;8.952;2023-04-26T06:04:32;100824.41;;;5.21;100.00
4586;BME280;2305;50.118;8.952;2023-04-26T06:07:10;100831.94;;;5.27;100.00
4586;BME280;2305;50.118;8.952;2023-04-26T06:09:42;100832.75;;;5.28;100.00
4586;BME280;2305;50.118;8.952;2023-04-26T06:12:10;100830.59;;;5.36;100.00
4586;BME280;2305;50.118;8.952;2023-04-26T06:14:45;100831.94;;;5.43;100.00
4586;BME280;2305;50.118;8.952;2023-04-26T06:17:29;100841.94;;;5.52;100.00
4586;BME280;2305;50.118;8.952;2023-04-26T06:19:58;100845.06;;;5.58;100.00
4586;BME280;2305;50.118;8.952;2023-04-26T06:22:30;100841.97;;;5.67;100.00
4586;BME280;2305;50.118;8.952;2023-04-26T06:25:01;100845.88;;;5.76;100.00
4586;BME280;2305;50.118;8.952;2023-04-26T06:27:36;100848.88;;;5.85;100.00
4586;BME280;2305;50.118;8.952;2023-04-26T06:30:08;100850.38;;;5.89;100.00
4586;BME280;2305;50.118;8.952;2023-04-26T06:32:46;100843.81;;;5.98;100.00
4586;BME280;2305;50.118;8.952;2023-04-26T06:35:14;100839.94;;;6.05;100.00
4586;BME280;2305;50.118;8.952;2023-04-26T06:37:43;100844.75;;;6.12;100.00
4586;BME280;2305;50.118;8.952;2023-04-26T06:40:12;100849.66;;;6.18;100.00
4586;BME280;2305;50.118;8.952;2023-04-26T06:42:42;100847.44;;;6.26;100.00
4586;BME280;2305;50.118;8.952;2023-04-26T06:45:37;100845.16;;;6.36;100.00
4586;BME280;2305;50.118;8.952;2023-04-26T06:48:15;100848.19;;;6.44;100.00
4586;BME280;2305;50.118;8.952;2023-04-26T06:50:44;100851.13;;;6.53;100.00
4586;BME280;2305;50.118;8.952;2023-04-26T06:53:14;100847.88;;;6.64;100.00
4586;BME280;2305;50.118;8.952;2023-04-26T06:55:48;100850.56;;;6.78;100.00
4586;BME280;2305;50.118;8.952;2023-04-26T06:58:30;100846.31;;;6.91;100.00
4586;BME280;2305;50.118;8.952;2023-04-26T07:01:01;100845.59;;;7.03;100.00
4586;BME280;2305;50.118;8.952;2023-04-26T07:03:35;100851.97;;;7.13;100.00
4586;BME280;2305;50.118;8.952;2023-04-26T07:06:06;100854.97;;;7.21;100.00
4586;BME280;2305;50.118;8.952;2023-04-26T07:08:35;100847.13;;;7.35;100.00
4586;BME280;2305;50.118;8.952;2023-04-26T07:11:08;100845.19;;;7.38;100.00
4586;BME280;2305;50.118;8.952;2023-04-26T07:13:38;100842.03;;;7.47;100.00
4586;BME280;2305;50.118;8.952;2023-04-26T07:16:08;100839.13;;;7.52;100.00
4586;BME280;2305;50.118;8.952;2023-04-26T07:18:38;100836.94;;;7.58;100.00
4586;BME280;2305;50.118;8.952;2023-04-26T07:21:12;100838.38;;;7.64;100.00
4586;BME280;2305;50.118;8.952;2023-04-26T07:23:43;100843.72;;;7.76;100.00
4586;BME280;2305;50.118;8.952;2023-04-26T07:26:12;100836.84;;;7.88;100.00
4586;BME280;2305;50.118;8.952;2023-04-26T07:28:44;100838.06;;;7.96;100.00
4586;BME280;2305;50.118;8.952;2023-04-26T07:31:16;100839.16;;;8.06;100.00
4586;BME280;2305;50.118;8.952;2023-04-26T07:33:50;100835.31;;;8.12;100.00
4586;BME280;2305;50.118;8.952;2023-04-26T07:36:19;100837.53;;;8.18;100.00
4586;BME280;2305;50.118;8.952;2023-04-26T07:38:51;100837.75;;;8.29;100.00
4586;BME280;2305;50.118;8.952;2023-04-26T07:41:21;100837.16;;;8.38;100.00
4586;BME280;2305;50.118;8.952;2023-04-26T07:43:50;100829.53;;;8.47;100.00
4586;BME280;2305;50.118;8.952;2023-04-26T07:46:20;100825.16;;;8.60;100.00
4586;BME280;2305;50.118;8.952;2023-04-26T07:48:50;100835.88;;;8.70;100.00
4586;BME280;2305;50.118;8.952;2023-04-26T07:51:20;100833.84;;;8.87;100.00
4586;BME280;2305;50.118;8.952;2023-04-26T07:53:49;100836.59;;;8.98;100.00
4586;BME280;2305;50.118;8.952;2023-04-26T07:56:21;100830.81;;;9.05;100.00
4586;BME280;2305;50.118;8.952;2023-04-26T07:58:49;100836.44;;;9.13;100.00
4586;BME280;2305;50.118;8.952;2023-04-26T08:01:21;100827.91;;;9.22;100.00
4586;BME280;2305;50.118;8.952;2023-04-26T08:03:50;100822.88;;;9.32;100.00
4586;BME280;2305;50.118;8.952;2023-04-26T08:06:19;100832.75;;;9.41;100.00
4586;BME280;2305;50.118;8.952;2023-04-26T08:08:49;100826.13;;;9.48;100.00
4586;BME280;2305;50.118;8.952;2023-04-26T08:11:18;100822.22;;;9.53;100.00
4586;BME280;2305;50.118;8.952;2023-04-26T08:13:49;100820.75;;;9.62;100.00
4586;BME280;2305;50.118;8.952;2023-04-26T08:16:18;100820.41;;;9.66;100.00
4586;BME280;2305;50.118;8.952;2023-04-26T08:18:46;100824.53;;;9.70;100.00
4586;BME280;2305;50.118;8.952;2023-04-26T08:21:17;100820.53;;;9.77;100.00
4586;BME280;2305;50.118;8.952;2023-04-26T08:23:46;100824.69;;;9.80;100.00
4586;BME280;2305;50.118;8.952;2023-04-26T08:26:17;100824.06;;;9.89;100.00
4586;BME280;2305;50.118;8.952;2023-04-26T08:28:46;100816.69;;;10.06;100.00
4586;BME280;2305;50.118;8.952;2023-04-26T08:31:17;100815.84;;;10.06;100.00
4586;BME280;2305;50.118;8.952;2023-04-26T08:33:45;100820.56;;;10.13;100.00
4586;BME280;2305;50.118;8.952;2023-04-26T08:36:14;100822.31;;;10.25;100.00
4586;BME280;2305;50.118;8.952;2023-04-26T08:38:46;100819.31;;;10.42;100.00
4586;BME280;2305;50.118;8.952;2023-04-26T08:41:17;100819.47;;;10.52;100.00
4586;BME280;2305;50.118;8.952;2023-04-26T08:43:50;100819.13;;;10.56;99.57
4586;BME280;2305;50.118;8.952;2023-04-26T08:46:21;100818.34;;;10.67;96.20
4586;BME280;2305;50.118;8.952;2023-04-26T08:48:56;100815.53;;;10.81;89.11
4586;BME280;2305;50.118;8.952;2023-04-26T08:51:32;100818.44;;;10.89;87.39
4586;BME280;2305;50.118;8.952;2023-04-26T08:54:04;100813.41;;;10.97;86.72
4586;BME280;2305;50.118;8.952;2023-04-26T08:56:34;100808.91;;;11.21;89.75
4586;BME280;2305;50.118;8.952;2023-04-26T08:59:02;100817.25;;;11.49;91.35
4586;BME280;2305;50.118;8.952;2023-04-26T09:01:33;100806.25;;;11.77;86.64
4586;BME280;2305;50.118;8.952;2023-04-26T09:04:05;100803.34;;;11.80;82.99
4586;BME280;2305;50.118;8.952;2023-04-26T09:06:36;100811.03;;;12.05;85.33
4586;BME280;2305;50.118;8.952;2023-04-26T09:09:12;100804.13;;;12.25;82.03
4586;BME280;2305;50.118;8.952;2023-04-26T09:11:54;100799.84;;;12.44;81.57
4586;BME280;2305;50.118;8.952;2023-04-26T09:14:25;100795.53;;;12.54;81.07
4586;BME280;2305;50.118;8.952;2023-04-26T09:16:54;100791.72;;;12.68;76.74
4586;BME280;2305;50.118;8.952;2023-04-26T09:19:43;100803.78;;;12.81;75.26
4586;BME280;2305;50.118;8.952;2023-04-26T09:22:13;100802.13;;;12.80;74.88
4586;BME280;2305;50.118;8.952;2023-04-26T09:24:55;100804.31;;;12.75;75.06
4586;BME280;2305;50.118;8.952;2023-04-26T09:27:31;100806.31;;;12.83;74.33
4586;BME280;2305;50.118;8.952;2023-04-26T09:30:06;100808.19;;;12.92;73.81
4586;BME280;2305;50.118;8.952;2023-04-26T09:32:50;100799.38;;;13.02;77.17
4586;BME280;2305;50.118;8.952;2023-04-26T09:35:26;100798.69;;;13.00;75.00
4586;BME280;2305;50.118;8.952;2023-04-26T09:37:57;100799.53;;;13.01;71.23
4586;BME280;2305;50.118;8.952;2023-04-26T09:40:43;100795.66;;;13.05;75.77
4586;BME280;2305;50.118;8.952;2023-04-26T09:43:13;100794.50;;;13.18;75.94
4586;BME280;2305;50.118;8.952;2023-04-26T09:45:46;100798.88;;;13.29;75.32
4586;BME280;2305;50.118;8.952;2023-04-26T09:48:21;100794.41;;;13.29;74.24
4586;BME280;2305;50.118;8.952;2023-04-26T09:50:54;100800.63;;;13.39;67.04
4586;BME280;2305;50.118;8.952;2023-04-26T09:53:27;100796.53;;;13.35;65.92
4586;BME280;2305;50.118;8.952;2023-04-26T09:56:16;100798.63;;;13.32;65.18
4586;BME280;2305;50.118;8.952;2023-04-26T09:58:57;100792.03;;;13.26;65.52
4586;BME280;2305;50.118;8.952;2023-04-26T10:01:28;100788.25;;;13.19;65.26
4586;BME280;2305;50.118;8.952;2023-04-26T10:03:56;100789.13;;;13.29;66.29
4586;BME280;2305;50.118;8.952;2023-04-26T10:06:33;100788.09;;;13.41;65.07
4586;BME280;2305;50.118;8.952;2023-04-26T10:09:07;100775.81;;;13.40;65.51
4586;BME280;2305;50.118;8.952;2023-04-26T10:11:41;100780.38;;;13.38;66.61
4586;BME280;2305;50.118;8.952;2023-04-26T10:14:11;100782.50;;;13.44;66.14
4586;BME280;2305;50.118;8.952;2023-04-26T10:16:42;100772.66;;;13.56;66.74
4586;BME280;2305;50.118;8.952;2023-04-26T10:19:11;100769.44;;;13.82;65.71
4586;BME280;2305;50.118;8.952;2023-04-26T10:21:42;100772.66;;;13.95;66.27
4586;BME280;2305;50.118;8.952;2023-04-26T10:24:14;100770.22;;;14.03;67.16
4586;BME280;2305;50.118;8.952;2023-04-26T10:26:48;100761.97;;;14.06;64.15
4586;BME280;2305;50.118;8.952;2023-04-26T10:29:19;100767.41;;;14.14;64.77
4586;BME280;2305;50.118;8.952;2023-04-26T10:32:09;100762.03;;;14.25;64.30
4586;BME280;2305;50.118;8.952;2023-04-26T10:35:08;100764.56;;;14.36;65.07
4586;BME280;2305;50.118;8.952;2023-04-26T10:38:07;100762.75;;;14.36;66.21
4586;BME280;2305;50.118;8.952;2023-04-26T10:41:29;100752.97;;;14.37;63.29
4586;BME280;2305;50.118;8.952;2023-04-26T10:44:37;100754.50;;;14.39;61.28
4586;BME280;2305;50.118;8.952;2023-04-26T10:47:20;100749.47;;;14.55;57.00
4586;BME280;2305;50.118;8.952;2023-04-26T10:49:53;100754.53;;;14.68;57.66
4586;BME280;2305;50.118;8.952;2023-04-26T10:52:32;100740.66;;;14.74;57.52
4586;BME280;2305;50.118;8.952;2023-04-26T10:55:03;100745.84;;;14.85;58.92
4586;BME280;2305;50.118;8.952;2023-04-26T10:57:48;100740.38;;;14.96;58.37
4586;BME280;2305;50.118;8.952;2023-04-26T11:00:52;100740.34;;;15.05;58.68
4586;BME280;2305;50.118;8.952;2023-04-26T11:04:05;100731.38;;;15.16;57.98
4586;BME280;2305;50.118;8.952;2023-04-26T11:06:48;100722.59;;;15.15;55.34
4586;BME280;2305;50.118;8.952;2023-04-26T11:09:33;100723.16;;;15.19;58.10
4586;BME280;2305;50.118;8.952;2023-04-26T11:12:04;100725.13;;;15.17;57.60
4586;BME280;2305;50.118;8.952;2023-04-26T11:14:33;100729.03;;;15.03;54.71
4586;BME280;2305;50.118;8.952;2023-04-26T11:17:05;100721.03;;;14.57;53.20
4586;BME280;2305;50.118;8.952;2023-04-26T11:19:35;100717.38;;;14.30;54.56
4586;BME280;2305;50.118;8.952;2023-04-26T11:22:06;100724.22;;;14.23;56.01
4586;BME280;2305;50.118;8.952;2023-04-26T11:24:36;100732.72;;;14.26;56.00
4586;BME280;2305;50.118;8.952;2023-04-26T11:27:08;100727.72;;;14.33;54.21
4586;BME280;2305;50.118;8.952;2023-04-26T11:29:42;100722.13;;;14.26;56.19
4586;BME280;2305;50.118;8.952;2023-04-26T11:32:12;100719.34;;;14.28;56.78
4586;BME280;2305;50.118;8.952;2023-04-26T11:34:40;100715.59;;;14.40;57.40
4586;BME280;2305;50.118;8.952;2023-04-26T11:37:10;100723.25;;;14.52;57.12
4586;BME280;2305;50.118;8.952;2023-04-26T11:39:40;100715.56;;;14.59;56.02
4586;BME280;2305;50.118;8.952;2023-04-26T11:42:12;100713.47;;;14.62;56.27
4586;BME280;2305;50.118;8.952;2023-04-26T11:44:40;100715.72;;;14.67;56.39
4586;BME280;2305;50.118;8.952;2023-04-26T11:47:08;100709.81;;;14.73;56.00
4586;BME280;2305;50.118;8.952;2023-04-26T11:49:40;100709.56;;;14.57;61.19
4586;BME280;2305;50.118;8.952;2023-04-26T11:52:10;100706.59;;;14.88;59.36
4586;BME280;2305;50.118;8.952;2023-04-26T11:54:39;100703.56;;;15.20;59.13
4586;BME280;2305;50.118;8.952;2023-04-26T11:57:15;100699.72;;;15.41;60.87
4586;BME280;2305;50.118;8.952;2023-04-26T11:59:45;100706.66;;;15.52;61.70
4586;BME280;2305;50.118;8.952;2023-04-26T12:02:22;100700.81;;;15.48;59.18
4586;BME280;2305;50.118;8.952;2023-04-26T12:05:02;100700.03;;;15.38;56.19
4586;BME280;2305;50.118;8.952;2023-04-26T12:07:34;100708.13;;;15.37;54.85
4586;BME280;2305;50.118;8.952;2023-04-26T12:10:16;100700.78;;;15.21;52.87
4586;BME280;2305;50.118;8.952;2023-04-26T12:12:47;100690.31;;;15.20;53.54
4586;BME280;2305;50.118;8.952;2023-04-26T12:15:28;100694.50;;;15.22;55.46
4586;BME280;2305;50.118;8.952;2023-04-26T12:17:59;100694.91;;;15.27;56.87
4586;BME280;2305;50.118;8.952;2023-04-26T12:20:34;100698.94;;;15.22;55.19
4586;BME280;2305;50.118;8.952;2023-04-26T12:23:20;100697.38;;;15.29;57.55
4586;BME280;2305;50.118;8.952;2023-04-26T12:26:09;100693.19;;;15.36;56.08
4586;BME280;2305;50.118;8.952;2023-04-26T12:28:42;100695.72;;;15.37;54.74
4586;BME280;2305;50.118;8.952;2023-04-26T12:31:56;100700.81;;;15.48;55.84
4586;BME280;2305;50.118;8.952;2023-04-26T12:34:29;100704.28;;;15.58;55.88
4586;BME280;2305;50.118;8.952;2023-04-26T12:37:03;100685.38;;;15.61;56.67
4586;BME280;2305;50.118;8.952;2023-04-26T12:39:38;100689.44;;;15.65;57.79
4586;BME280;2305;50.118;8.952;2023-04-26T12:42:08;100686.13;;;15.81;55.96
4586;BME280;2305;50.118;8.952;2023-04-26T12:44:36;100681.44;;;16.10;55.15
4586;BME280;2305;50.118;8.952;2023-04-26T12:47:06;100674.56;;;16.52;56.34
4586;BME280;2305;50.118;8.952;2023-04-26T12:49:40;100676.28;;;16.86;53.29
4586;BME280;2305;50.118;8.952;2023-04-26T12:52:10;100674.13;;;17.15;52.21
4586;BME280;2305;50.118;8.952;2023-04-26T12:54:39;100675.72;;;17.34;50.70
4586;BME280;2305;50.118;8.952;2023-04-26T12:57:09;100673.53;;;17.55;50.98
4586;BME280;2305;50.118;8.952;2023-04-26T12:59:40;100674.03;;;17.58;49.41
4586;BME280;2305;50.118;8.952;2023-04-26T13:02:09;100673.78;;;17.44;46.53
4586;BME280;2305;50.118;8.952;2023-04-26T13:04:40;100679.59;;;17.39;48.44
4586;BME280;2305;50.118;8.952;2023-04-26T13:07:10;100669.22;;;17.62;50.53
4586;BME280;2305;50.118;8.952;2023-04-26T13:09:38;100681.81;;;17.93;51.08
4586;BME280;2305;50.118;8.952;2023-04-26T13:12:07;100677.50;;;18.16;46.74
4586;BME280;2305;50.118;8.952;2023-04-26T13:14:38;100675.72;;;18.33;48.28
4586;BME280;2305;50.118;8.952;2023-04-26T13:17:07;100671.69;;;18.29;45.16
4586;BME280;2305;50.118;8.952;2023-04-26T13:19:37;100671.88;;;18.27;45.17
4586;BME280;2305;50.118;8.952;2023-04-26T13:22:11;100670.66;;;18.14;45.55
4586;BME280;2305;50.118;8.952;2023-04-26T13:24:46;100673.81;;;18.01;45.42
4586;BME280;2305;50.118;8.952;2023-04-26T13:27:16;100673.59;;;17.79;44.79
4586;BME280;2305;50.118;8.952;2023-04-26T13:29:46;100673.13;;;17.83;46.77
4586;BME280;2305;50.118;8.952;2023-04-26T13:32:17;100668.13;;;17.96;48.55
4586;BME280;2305;50.118;8.952;2023-04-26T13:34:51;100669.00;;;18.13;46.73
4586;BME280;2305;50.118;8.952;2023-04-26T13:37:23;100675.03;;;18.23;44.78